Time;durP1;ratioP1;P1;durP2;ratioP2;P2;SDS_P1;SDS_P2;PMS_P1;PMS_P2;Temp;Humidity;BMP_temperature;BMP_pressure;BME280_temperature;BME280_humidity;BME280_pressure;Samples;Min_cycle;Max_cycle;Signal;HPM_P1;HPM_P2
2024/04/12 00:01:12;;;;;;;1.83;1.00;;;;;;;11.15;58.03;101564.38;11323391;26;20006;-58
2024/04/12 00:06:15;;;;;;;3.13;1.58;;;;;;;11.06;58.13;101547.25;11316960;26;20013;-58
2024/04/12 00:11:19;;;;;;;2.20;1.00;;;;;;;11.04;58.20;101548.19;11316148;26;20568;-59
2024/04/12 00:16:25;;;;;;;3.83;1.10;;;;;;;10.85;58.20;101550.59;11315336;26;20006;-59
2024/04/12 00:21:28;;;;;;;1.35;0.93;;;;;;;10.84;58.52;101556.75;11319981;26;20440;-58
2024/04/12 00:26:31;;;;;;;2.05;1.10;;;;;;;10.76;58.10;101558.78;11322009;26;20806;-58
2024/04/12 00:31:42;;;;;;;3.53;1.90;;;;;;;10.51;58.59;101550.03;11321539;26;20480;-58
2024/04/12 00:36:48;;;;;;;3.20;1.42;;;;;;;10.53;58.81;101545.59;11310088;26;20239;-58
2024/04/12 00:41:50;;;;;;;3.50;1.50;;;;;;;10.61;58.79;101547.97;11323590;26;20342;-59
2024/04/12 00:46:53;;;;;;;2.47;1.00;;;;;;;10.59;58.56;101549.78;11314473;26;19998;-58
2024/04/12 00:51:56;;;;;;;1.65;0.93;;;;;;;10.59;58.54;101544.53;11322416;26;20907;-58
2024/04/12 00:57:02;;;;;;;4.55;1.60;;;;;;;10.56;59.05;101539.44;11318555;26;20021;-58
2024/04/12 01:02:08;;;;;;;4.35;1.17;;;;;;;10.53;58.70;101540.38;11320483;26;20002;-58
2024/04/12 01:07:13;;;;;;;1.23;0.88;;;;;;;10.52;58.52;101541.31;11311829;26;20022;-58
2024/04/12 01:12:19;;;;;;;2.17;1.15;;;;;;;10.49;58.75;101525.69;11318636;26;20117;-58
2024/04/12 01:17:24;;;;;;;3.33;1.20;;;;;;;10.47;58.69;101531.00;11312734;26;20924;-58
2024/04/12 01:22:26;;;;;;;4.78;1.10;;;;;;;10.29;59.08;101533.38;11318755;26;20497;-59
2024/04/12 01:27:34;;;;;;;1.42;1.00;;;;;;;10.24;59.00;101527.41;11321730;26;20002;-59
2024/04/12 01:32:36;;;;;;;3.33;1.05;;;;;;;10.29;59.21;101533.38;11319327;26;20003;-59
2024/04/12 01:37:43;;;;;;;3.88;1.10;;;;;;;10.16;58.97;101529.44;11306934;26;20006;-59
2024/04/12 01:42:46;;;;;;;5.45;1.98;;;;;;;10.03;59.61;101533.38;11312134;26;20046;-58
2024/04/12 01:47:49;;;;;;;1.52;0.90;;;;;;;10.07;59.85;101532.34;11302333;26;20013;-59
2024/04/12 01:52:57;;;;;;;1.98;1.00;;;;;;;10.06;59.54;101539.34;11313567;26;20007;-59
2024/04/12 01:58:00;;;;;;;1.67;1.10;;;;;;;10.05;59.63;101534.16;11313456;26;20006;-59
2024/04/12 02:03:03;;;;;;;3.05;1.15;;;;;;;10.05;59.63;101531.56;11323708;26;20442;-59
2024/04/12 02:08:08;;;;;;;4.00;1.10;;;;;;;10.01;59.39;101525.53;11328031;26;20819;-59
2024/04/12 02:13:17;;;;;;;2.22;1.10;;;;;;;10.01;59.63;101522.94;11317029;26;20346;-59
2024/04/12 02:18:22;;;;;;;1.10;1.00;;;;;;;10.01;59.93;101529.94;11322900;26;20017;-59
2024/04/12 02:23:25;;;;;;;6.97;1.90;;;;;;;10.00;59.52;101539.53;11322914;26;20006;-59
2024/04/12 02:28:28;;;;;;;1.80;0.90;;;;;;;9.87;60.20;101534.75;11323819;26;20006;-60
2024/04/12 02:33:32;;;;;;;5.57;1.40;;;;;;;9.88;59.55;101531.22;11321728;26;20006;-60
2024/04/12 02:38:36;;;;;;;1.83;1.10;;;;;;;9.84;59.99;101521.78;11322050;26;20560;-60
2024/04/12 02:43:40;;;;;;;5.60;2.03;;;;;;;9.81;60.17;101506.22;11283809;26;20018;-60
2024/04/12 02:48:52;;;;;;;1.52;0.82;;;;;;;9.77;60.17;101507.22;11320589;26;19998;-60
2024/04/12 02:53:57;;;;;;;4.90;1.25;;;;;;;9.50;60.43;101517.53;11327767;26;20047;-60
2024/04/12 02:59:01;;;;;;;1.85;1.13;;;;;;;9.33;60.74;101521.56;11318911;26;20447;-59
2024/04/12 03:04:04;;;;;;;1.92;0.98;;;;;;;9.38;60.48;101525.75;11291062;26;20006;-60
2024/04/12 03:09:06;;;;;;;1.98;1.10;;;;;;;9.43;60.30;101534.31;11321272;26;20046;-59
2024/04/12 03:14:12;;;;;;;4.07;1.70;;;;;;;9.41;60.31;101533.50;11323982;26;20002;-59
2024/04/12 03:19:15;;;;;;;3.58;1.80;;;;;;;9.28;60.51;101526.09;11327182;26;20002;-59
2024/04/12 03:24:18;;;;;;;1.17;0.95;;;;;;;9.15;60.47;101524.72;11329623;26;20346;-60
2024/04/12 03:29:21;;;;;;;4.75;1.20;;;;;;;8.92;61.17;101532.31;11326437;26;20370;-59
2024/04/12 03:34:24;;;;;;;4.75;1.52;;;;;;;8.81;61.52;101527.44;11309205;26;20017;-60
2024/04/12 03:39:31;;;;;;;1.50;1.10;;;;;;;8.92;61.21;101530.56;11320183;26;20017;-60
2024/04/12 03:44:37;;;;;;;2.17;1.23;;;;;;;9.00;61.12;101519.91;11321478;26;20002;-60
2024/04/12 03:49:41;;;;;;;1.77;1.00;;;;;;;9.03;61.33;101523.31;11322316;26;19998;-59
2024/04/12 03:54:46;;;;;;;1.35;1.05;;;;;;;9.03;61.12;101528.53;11324546;26;20002;-59
2024/04/12 03:59:57;;;;;;;3.88;1.30;;;;;;;9.01;60.64;101522.50;11324135;26;20077;-59
2024/04/12 04:05:13;;;;;;;3.10;1.00;;;;;;;8.93;60.82;101527.09;11320058;26;20104;-60
2024/04/12 04:10:20;;;;;;;2.05;1.63;;;;;;;8.83;60.68;101508.19;11319031;26;20489;-59
2024/04/12 04:15:25;;;;;;;2.92;1.00;;;;;;;8.82;60.75;101516.94;11312123;26;20450;-59
2024/04/12 04:20:28;;;;;;;2.80;1.52;;;;;;;8.74;61.32;101518.03;11318353;26;20005;-60
2024/04/12 04:25:31;;;;;;;2.03;1.10;;;;;;;8.74;61.00;101520.66;11317617;26;20342;-60
2024/04/12 04:30:35;;;;;;;2.40;1.10;;;;;;;8.70;61.10;101519.88;11320659;26;20006;-60
2024/04/12 04:35:38;;;;;;;2.95;1.40;;;;;;;8.69;61.39;101517.28;11321966;26;20002;-59
2024/04/12 04:40:41;;;;;;;2.97;1.58;;;;;;;8.65;61.09;101513.06;11311731;26;20002;-60
2024/04/12 04:45:48;;;;;;;2.65;1.10;;;;;;;8.62;60.91;101518.38;11320381;26;20013;-58
2024/04/12 04:50:51;;;;;;;2.97;1.52;;;;;;;8.63;61.02;101533.09;11316901;26;20343;-60
2024/04/12 04:55:54;;;;;;;1.77;0.90;;;;;;;8.59;61.12;101521.03;11318073;26;20012;-60
2024/04/12 05:00:58;;;;;;;1.95;1.20;;;;;;;8.59;61.30;101524.50;11319674;26;19998;-60
2024/04/12 05:06:05;;;;;;;4.30;1.13;;;;;;;8.73;60.98;101525.00;11316173;26;20022;-59
2024/04/12 05:11:08;;;;;;;1.63;0.93;;;;;;;8.69;60.82;101538.16;11318688;26;20042;-60
2024/04/12 05:16:15;;;;;;;1.60;1.15;;;;;;;8.82;60.88;101535.19;11314703;26;20006;-60
2024/04/12 05:21:18;;;;;;;4.95;1.40;;;;;;;8.88;60.52;101547.22;11316719;26;20335;-60
2024/04/12 05:26:21;;;;;;;1.70;0.98;;;;;;;8.91;60.72;101547.16;11315492;26;20006;-60
2024/04/12 05:31:29;;;;;;;3.85;1.30;;;;;;;9.01;60.36;101561.66;11319687;26;20029;-59
2024/04/12 05:36:33;;;;;;;3.55;1.00;;;;;;;9.10;60.50;101552.69;11318885;26;20289;-58
2024/04/12 05:41:37;;;;;;;3.33;1.33;;;;;;;9.17;60.21;101560.31;11325236;26;19998;-58
2024/04/12 05:46:41;;;;;;;1.90;1.15;;;;;;;9.20;60.21;101560.22;11323264;26;20006;-59
2024/04/12 05:51:44;;;;;;;2.35;1.27;;;;;;;9.35;60.17;101557.19;11328953;26;20002;-59
2024/04/12 05:56:49;;;;;;;2.45;1.20;;;;;;;9.43;59.87;101568.25;11324601;26;20006;-59
2024/04/12 06:01:54;;;;;;;1.83;1.05;;;;;;;9.58;59.92;101570.41;11328001;26;20006;-59
2024/04/12 06:06:59;;;;;;;1.27;1.10;;;;;;;9.67;59.85;101578.94;11329180;26;20079;-59
2024/04/12 06:12:05;;;;;;;4.82;1.60;;;;;;;9.85;59.62;101576.59;11323304;26;20002;-59
2024/04/12 06:17:11;;;;;;;1.75;1.17;;;;;;;10.05;59.51;101578.59;11329742;26;20037;-58
2024/04/12 06:22:15;;;;;;;5.20;1.10;;;;;;;10.21;59.23;101571.97;11328623;26;20013;-58
2024/04/12 06:27:29;;;;;;;1.77;1.08;;;;;;;10.43;59.39;101570.38;11328898;26;20671;-58
2024/04/12 06:32:33;;;;;;;1.08;0.90;;;;;;;10.64;59.27;101569.66;11328112;26;20016;-58
2024/04/12 06:37:36;;;;;;;2.60;1.13;;;;;;;10.82;58.57;101563.78;11326555;26;19994;-58
2024/04/12 06:42:41;;;;;;;2.63;1.15;;;;;;;10.96;59.14;101561.53;11288213;26;20006;-58
2024/04/12 06:47:48;;;;;;;1.70;1.13;;;;;;;11.35;58.43;101561.03;11322097;26;20331;-58
2024/04/12 06:52:54;;;;;;;2.03;1.00;;;;;;;11.66;58.15;101565.03;11323597;26;20006;-58
2024/04/12 06:57:56;;;;;;;2.88;1.38;;;;;;;12.36;56.97;101555.25;11329805;26;20762;-59
2024/04/12 07:02:59;;;;;;;2.67;1.30;;;;;;;13.38;55.57;101547.25;11323366;26;20553;-58
2024/04/12 07:08:05;;;;;;;2.80;1.25;;;;;;;13.93;55.22;101544.69;11329174;26;20013;-59
2024/04/12 07:13:08;;;;;;;1.85;1.15;;;;;;;14.56;54.37;101542.41;11326859;26;20042;-58
2024/04/12 07:18:11;;;;;;;2.88;1.05;;;;;;;15.14;53.54;101539.38;11328256;26;20428;-59
2024/04/12 07:23:17;;;;;;;2.63;1.23;;;;;;;15.27;53.50;101543.03;11266592;26;20809;-59
2024/04/12 07:28:19;;;;;;;4.60;1.52;;;;;;;15.37;53.26;101545.09;11326685;26;19998;-58
2024/04/12 07:33:24;;;;;;;3.80;1.50;;;;;;;15.07;53.34;101535.34;11319163;26;20002;-58
2024/04/12 07:38:29;;;;;;;3.08;1.20;;;;;;;14.92;53.67;101538.81;11316588;26;20002;-58
2024/04/12 07:43:41;;;;;;;2.42;1.20;;;;;;;14.73;53.44;101548.59;11312188;26;20103;-59
2024/04/12 07:48:48;;;;;;;2.75;1.42;;;;;;;14.74;53.98;101534.47;11313508;26;20002;-59
2024/04/12 07:53:52;;;;;;;1.63;0.90;;;;;;;14.91;53.63;101537.09;11301201;26;20047;-59
2024/04/12 07:59:13;;;;;;;4.60;1.10;;;;;;;14.99;53.39;101550.72;11312452;26;20006;-59
2024/04/12 08:04:23;;;;;;;2.38;1.00;;;;;;;14.83;53.74;101557.72;11293518;26;20017;-59
2024/04/12 08:09:42;;;;;;;2.70;1.20;;;;;;;15.05;53.56;101539.84;11314003;26;20729;-58
2024/04/12 08:14:56;;;;;;;1.75;1.50;;;;;;;15.21;53.30;101552.13;11313544;26;20330;-58
2024/04/12 08:20:13;;;;;;;3.20;1.10;;;;;;;15.21;53.39;101548.66;11311069;26;20046;-59
2024/04/12 08:25:17;;;;;;;2.35;1.42;;;;;;;15.55;53.30;101543.28;11314277;26;20876;-59
2024/04/12 08:30:22;;;;;;;2.13;1.23;;;;;;;15.67;52.85;101547.91;11312254;26;20388;-59
2024/04/12 08:35:24;;;;;;;2.15;1.10;;;;;;;15.93;52.57;101555.22;11313829;26;20440;-59
2024/04/12 08:40:37;;;;;;;1.40;1.05;;;;;;;16.16;52.44;101548.63;11309737;26;20006;-58
2024/04/12 08:45:43;;;;;;;2.90;1.45;;;;;;;16.40;52.13;101539.28;11281874;26;20431;-58
2024/04/12 08:50:48;;;;;;;1.65;1.10;;;;;;;16.47;51.97;101548.56;11306519;26;20013;-58
2024/04/12 08:55:51;;;;;;;3.33;1.05;;;;;;;16.01;52.74;101555.63;11309061;26;20440;-58
2024/04/12 09:00:55;;;;;;;2.05;1.20;;;;;;;16.04;52.62;101549.34;11308259;26;19994;-58
2024/04/12 09:05:58;;;;;;;2.03;0.95;;;;;;;16.15;52.50;101553.06;11282874;26;20548;-58
2024/04/12 09:11:05;;;;;;;1.75;1.00;;;;;;;16.27;52.68;101566.47;11320326;26;20016;-58
2024/04/12 09:16:18;;;;;;;2.78;1.15;;;;;;;16.27;52.66;101561.19;11312256;26;20002;-58
2024/04/12 09:21:36;;;;;;;1.45;1.08;;;;;;;16.35;52.37;101570.38;11317758;26;20094;-59
2024/04/12 09:26:55;;;;;;;1.95;1.00;;;;;;;16.73;51.91;101565.53;11323703;26;20002;-58
2024/04/12 09:37:29;;;;;;;1.70;0.77;;;;;;;17.03;51.60;101577.78;11320985;26;20532;-59
2024/04/12 10:41:45;;;;;;;1.77;0.80;;;;;;;19.67;47.11;101532.69;11318655;26;20125;-61
2024/04/12 10:46:50;;;;;;;1.10;0.70;;;;;;;19.76;46.12;101523.22;11316014;26;20018;-61
2024/04/12 10:51:53;;;;;;;1.33;0.70;;;;;;;19.66;46.76;101522.19;11312861;26;20002;-60
2024/04/12 10:56:56;;;;;;;2.28;1.00;;;;;;;19.76;46.63;101520.56;11317042;26;20046;-60
2024/04/12 11:02:03;;;;;;;1.98;1.00;;;;;;;20.09;46.51;101518.13;11318151;26;19999;-62
2024/04/12 11:07:07;;;;;;;0.88;0.80;;;;;;;19.83;46.26;101506.75;11314634;26;20013;-63
2024/04/12 11:12:10;;;;;;;1.35;0.90;;;;;;;19.51;46.72;101513.53;11315634;26;20006;-60
2024/04/12 11:33:36;;;;;;;1.30;0.90;;;;;;;20.70;44.82;101477.13;11315970;26;20002;-60
2024/04/12 11:38:40;;;;;;;3.35;0.90;;;;;;;20.79;44.26;101468.41;11262886;26;20017;-60
2024/04/12 11:43:45;;;;;;;2.03;1.20;;;;;;;21.18;44.42;101464.44;11311522;26;20017;-62
2024/04/12 11:48:49;;;;;;;1.13;0.80;;;;;;;21.20;44.08;101455.38;11301079;26;20002;-60
2024/04/12 11:53:52;;;;;;;0.70;0.70;;;;;;;21.11;44.18;101447.28;11281845;26;20218;-60
2024/04/12 11:58:58;;;;;;;0.70;0.70;;;;;;;21.31;44.07;101438.53;11314883;26;20006;-60
2024/04/12 12:04:01;;;;;;;0.68;0.60;;;;;;;21.44;43.96;101432.13;11308423;26;20006;-60
2024/04/12 12:09:14;;;;;;;1.13;0.55;;;;;;;21.42;43.67;101427.88;11298624;26;20006;-59
2024/04/12 12:14:18;;;;;;;1.10;0.73;;;;;;;21.05;43.65;101437.94;11306934;26;20010;-61
2024/04/12 12:19:23;;;;;;;1.70;1.23;;;;;;;20.99;43.94;101441.09;11314486;26;20037;-61
2024/04/12 12:24:27;;;;;;;0.57;0.57;;;;;;;20.70;44.03;101439.91;11318598;26;20467;-61
2024/04/12 12:29:35;;;;;;;0.40;0.40;;;;;;;20.95;43.43;101429.88;11286335;26;20006;-61
2024/04/12 12:34:43;;;;;;;0.40;0.40;;;;;;;20.79;43.38;101421.41;11315318;26;20006;-61
2024/04/12 12:39:48;;;;;;;0.40;0.40;;;;;;;20.90;43.47;101421.44;11306326;26;20014;-61
2024/04/12 12:44:56;;;;;;;1.75;0.35;;;;;;;20.55;43.56;101415.34;11301458;26;20002;-61
2024/04/12 12:50:04;;;;;;;0.60;0.60;;;;;;;20.36;44.00;101416.88;11311366;25;20006;-61
2024/04/12 12:55:13;;;;;;;0.70;0.57;;;;;;;20.28;44.18;101412.13;11304669;26;20623;-62
2024/04/12 13:00:19;;;;;;;0.97;0.70;;;;;;;20.18;44.32;101408.50;11302973;26;20003;-61
2024/04/12 13:05:30;;;;;;;0.40;0.40;;;;;;;20.41;44.43;101407.59;11300510;26;20387;-61
2024/04/12 13:10:37;;;;;;;0.95;0.55;;;;;;;20.38;44.40;101405.16;11284172;26;20050;-61
2024/04/12 13:15:43;;;;;;;0.40;0.40;;;;;;;20.68;44.02;101389.50;11290451;26;20010;-61
2024/04/12 13:20:46;;;;;;;1.60;0.85;;;;;;;20.85;43.84;101393.47;11307960;26;19999;-61
2024/04/12 13:25:50;;;;;;;0.68;0.68;;;;;;;21.15;43.25;101388.34;11306617;26;20006;-61
2024/04/12 13:30:55;;;;;;;2.47;0.75;;;;;;;21.34;42.91;101380.63;11305272;26;20533;-62
2024/04/12 13:36:07;;;;;;;1.20;0.80;;;;;;;21.15;42.97;101367.06;11310424;26;20096;-62
2024/04/12 13:41:15;;;;;;;0.82;0.80;;;;;;;21.43;43.04;101360.38;11310047;26;20693;-62
2024/04/12 13:51:49;;;;;;;0.70;0.52;;;;;;;21.75;42.30;101348.75;11313365;26;20002;-61
2024/04/12 13:57:02;;;;;;;1.20;0.60;;;;;;;21.97;41.99;101342.44;11318937;26;20018;-61
2024/04/12 14:02:08;;;;;;;2.88;1.30;;;;;;;21.81;41.94;101334.06;11317061;26;20017;-61
2024/04/12 14:07:14;;;;;;;0.95;0.70;;;;;;;21.83;42.00;101332.97;11310512;26;20129;-62
2024/04/12 14:12:19;;;;;;;0.70;0.57;;;;;;;22.16;41.55;101339.09;11320003;26;20196;-62
2024/04/12 14:17:23;;;;;;;0.77;0.70;;;;;;;22.09;41.17;101336.09;11308677;26;20006;-61
2024/04/12 14:22:26;;;;;;;1.40;0.90;;;;;;;22.08;41.32;101331.75;11317813;26;20412;-61
2024/04/12 14:27:31;;;;;;;0.50;0.47;;;;;;;22.20;41.06;101314.72;11321187;26;19995;-61
2024/04/12 14:32:34;;;;;;;1.00;0.70;;;;;;;22.00;41.08;101312.88;11320355;26;21371;-61
2024/04/12 14:37:38;;;;;;;1.70;0.80;;;;;;;21.97;41.40;101310.47;11321431;26;20461;-61
2024/04/12 14:42:48;;;;;;;1.13;0.90;;;;;;;21.88;41.58;101300.63;11309747;26;20897;-60
2024/04/12 14:47:52;;;;;;;1.67;1.10;;;;;;;21.85;41.34;101298.19;11320412;26;20507;-61
2024/04/12 14:53:08;;;;;;;0.88;0.60;;;;;;;21.79;41.35;101288.06;11312647;26;20002;-61
2024/04/12 14:58:16;;;;;;;0.52;0.52;;;;;;;21.52;41.60;101272.63;11322063;26;20104;-61
2024/04/12 15:51:39;;;;;;;1.17;0.90;;;;;;;20.05;44.68;101288.25;11317601;26;20329;-62
2024/04/12 16:12:45;;;;;;;1.13;0.98;;;;;;;19.54;45.66;101274.47;11317466;26;20455;-62
2024/04/12 16:17:47;;;;;;;1.83;1.10;;;;;;;19.51;45.84;101279.16;11316387;26;19998;-62
2024/04/12 16:22:50;;;;;;;1.70;1.00;;;;;;;19.40;46.23;101274.66;11313935;26;20002;-62
2024/04/12 16:27:56;;;;;;;2.60;1.10;;;;;;;19.09;46.87;101276.13;11319289;26;20346;-62
2024/04/12 16:32:58;;;;;;;1.20;0.93;;;;;;;18.93;47.04;101270.19;11284557;26;20010;-62
2024/04/12 16:38:03;;;;;;;1.30;0.90;;;;;;;18.83;47.33;101273.66;11315737;26;20097;-62
2024/04/12 16:43:05;;;;;;;1.30;0.82;;;;;;;18.82;47.29;101256.88;11313785;26;19998;-62
2024/04/12 16:48:08;;;;;;;2.92;1.20;;;;;;;18.58;48.10;101261.31;11312118;26;20759;-62
2024/04/12 16:53:11;;;;;;;1.10;1.00;;;;;;;18.68;48.14;101267.66;11293162;26;20457;-61
2024/04/12 16:58:13;;;;;;;1.40;1.00;;;;;;;18.65;48.19;101259.91;11310317;26;20387;-61
2024/04/12 17:03:17;;;;;;;2.00;1.08;;;;;;;18.72;47.93;101250.56;11314904;26;20002;-61
2024/04/12 17:08:19;;;;;;;2.28;1.10;;;;;;;18.78;48.18;101236.00;11315108;26;20465;-61
2024/04/12 17:13:22;;;;;;;2.00;1.05;;;;;;;18.88;48.15;101240.53;11317481;26;20021;-61
2024/04/12 17:18:30;;;;;;;2.05;1.23;;;;;;;18.82;48.42;101234.81;11318831;26;19998;-61
2024/04/12 17:23:33;;;;;;;2.03;1.20;;;;;;;18.79;48.44;101217.34;11317878;26;20785;-60
2024/04/12 17:28:37;;;;;;;1.95;1.00;;;;;;;18.80;48.62;101205.78;11308163;26;20002;-61
2024/04/12 17:33:42;;;;;;;3.10;1.17;;;;;;;18.59;48.75;101204.72;11326225;26;20006;-61
2024/04/12 17:38:45;;;;;;;3.13;1.40;;;;;;;18.36;49.38;101200.25;11322654;26;20006;-61
2024/04/12 17:43:48;;;;;;;3.28;1.20;;;;;;;18.11;49.71;101197.63;11322573;26;20038;-61
2024/04/12 17:48:54;;;;;;;2.15;1.15;;;;;;;17.99;50.31;101204.63;11327076;26;20457;-61
2024/04/12 17:53:56;;;;;;;2.60;1.08;;;;;;;17.78;50.31;101199.03;11321951;26;20583;-61
2024/04/12 17:59:01;;;;;;;1.45;1.00;;;;;;;17.57;50.76;101199.66;11310205;26;20038;-60
2024/04/12 18:04:06;;;;;;;1.95;1.20;;;;;;;17.40;51.10;101206.13;11322276;26;20017;-61
2024/04/12 18:09:11;;;;;;;2.47;1.30;;;;;;;17.26;51.74;101203.50;11318254;26;20002;-61
2024/04/12 18:14:16;;;;;;;4.07;1.70;;;;;;;17.12;51.99;101198.31;11319046;26;20458;-61
2024/04/12 18:19:19;;;;;;;1.40;1.10;;;;;;;16.93;52.48;101201.34;11320795;26;20318;-61
2024/04/12 18:24:24;;;;;;;1.70;1.05;;;;;;;16.81;52.94;101203.94;11322427;26;20541;-61
2024/04/12 18:29:30;;;;;;;1.85;1.17;;;;;;;16.67;53.15;101198.72;11324299;26;20078;-61
2024/04/12 18:34:34;;;;;;;2.95;1.27;;;;;;;16.58;53.26;101202.78;11294562;26;20070;-61
2024/04/12 18:45:06;;;;;;;2.25;1.27;;;;;;;16.37;53.84;101197.97;11325170;26;20010;-60
2024/04/12 18:50:09;;;;;;;2.90;1.40;;;;;;;16.25;54.35;101204.91;11325886;26;20006;-60
2024/04/12 18:55:12;;;;;;;2.05;1.27;;;;;;;16.15;54.37;101217.84;11327386;26;20014;-61
2024/04/12 19:00:15;;;;;;;4.72;1.75;;;;;;;16.02;54.89;101211.63;11329858;26;20002;-60
2024/04/12 19:05:18;;;;;;;5.05;1.55;;;;;;;15.90;55.21;101216.78;11329719;26;20474;-60
2024/04/12 19:10:20;;;;;;;2.63;1.67;;;;;;;15.84;55.28;101214.53;11329236;26;19999;-60
2024/04/12 19:15:24;;;;;;;3.03;1.35;;;;;;;15.75;55.30;101210.69;11326362;26;20009;-60
2024/04/12 19:20:28;;;;;;;3.10;1.33;;;;;;;15.69;55.93;101212.84;11328174;26;19998;-60
2024/04/12 19:25:31;;;;;;;2.70;1.40;;;;;;;15.67;55.65;101209.47;11325391;26;20006;-60
2024/04/12 19:30:39;;;;;;;2.45;1.50;;;;;;;15.44;56.38;101223.97;11322207;26;20010;-60
2024/04/12 19:35:56;;;;;;;3.05;1.40;;;;;;;15.16;57.40;101216.84;11311079;26;20012;-60
2024/04/12 19:41:03;;;;;;;3.97;1.70;;;;;;;14.96;57.04;101214.50;11326964;26;20458;-60
2024/04/12 19:46:06;;;;;;;3.47;1.63;;;;;;;14.96;56.87;101214.50;11327562;26;20017;-60
2024/04/12 19:51:11;;;;;;;2.17;1.30;;;;;;;14.92;57.31;101220.88;11326430;26;20022;-60
2024/04/12 19:56:14;;;;;;;3.15;1.58;;;;;;;14.85;57.87;101221.34;11323114;26;20002;-60
2024/04/12 20:01:17;;;;;;;2.85;1.85;;;;;;;14.76;57.83;101225.34;11321370;26;20417;-60
2024/04/12 20:06:23;;;;;;;6.32;2.17;;;;;;;14.80;58.03;101218.13;11320448;26;20457;-60
2024/04/12 20:11:28;;;;;;;3.25;1.85;;;;;;;14.65;58.14;101216.34;11317985;26;20334;-60
2024/04/12 20:16:31;;;;;;;3.50;2.00;;;;;;;14.59;58.26;101221.00;11289590;26;20014;-60
2024/04/12 20:21:34;;;;;;;4.85;2.28;;;;;;;14.54;58.36;101223.06;11317331;26;20478;-61
2024/04/12 20:26:40;;;;;;;3.78;2.17;;;;;;;14.46;58.40;101225.25;11322117;26;20016;-61
2024/04/12 20:31:52;;;;;;;6.72;2.70;;;;;;;14.38;58.84;101205.53;11315704;26;20029;-61
2024/04/12 20:36:56;;;;;;;4.13;2.10;;;;;;;14.34;58.71;101220.66;11323790;26;20025;-61
2024/04/12 20:41:59;;;;;;;4.25;2.05;;;;;;;14.33;58.93;101220.75;11322089;26;20006;-61
2024/04/12 20:47:02;;;;;;;5.43;2.13;;;;;;;14.15;59.16;101214.69;11317807;26;20020;-61
2024/04/12 20:52:06;;;;;;;3.45;1.85;;;;;;;14.05;59.33;101213.50;11319619;26;20006;-60
2024/04/12 20:57:09;;;;;;;3.97;1.92;;;;;;;13.98;59.60;101219.16;11314859;26;20796;-61
2024/04/12 21:02:12;;;;;;;5.15;2.22;;;;;;;13.84;59.56;101224.31;11321871;26;20006;-61
2024/04/12 21:07:14;;;;;;;4.10;2.33;;;;;;;13.81;59.97;101209.53;11321064;26;20032;-61
2024/04/12 21:12:17;;;;;;;5.10;2.38;;;;;;;13.82;60.11;101211.22;11323864;26;20030;-61
2024/04/12 21:17:20;;;;;;;7.22;2.10;;;;;;;13.77;59.54;101211.50;11280601;26;20013;-61
2024/04/12 21:22:22;;;;;;;3.20;1.70;;;;;;;13.42;60.21;101216.81;11286815;26;20342;-61
2024/04/12 21:27:25;;;;;;;4.18;1.98;;;;;;;13.23;60.66;101209.03;11324101;26;19998;-62
2024/04/12 21:32:28;;;;;;;4.70;1.88;;;;;;;13.15;60.85;101207.72;11322793;26;19998;-61
2024/04/12 21:37:31;;;;;;;3.42;1.65;;;;;;;13.10;61.06;101210.59;11320788;26;20006;-61
2024/04/12 21:42:34;;;;;;;3.72;2.00;;;;;;;13.16;60.98;101210.28;11320067;26;20069;-61
2024/04/12 21:47:36;;;;;;;3.10;1.73;;;;;;;13.18;61.06;101218.94;11305106;26;20623;-61
2024/04/12 21:52:39;;;;;;;2.75;1.95;;;;;;;13.20;61.10;101222.31;11314761;26;20013;-61
2024/04/12 21:57:43;;;;;;;5.13;1.92;;;;;;;13.18;61.14;101212.81;11319775;26;20006;-61
2024/04/12 22:02:47;;;;;;;3.55;1.77;;;;;;;13.21;61.34;101208.25;11320846;26;20438;-61
2024/04/12 22:07:49;;;;;;;5.95;2.05;;;;;;;13.25;61.00;101214.22;11311818;26;20022;-61
2024/04/12 22:12:52;;;;;;;3.67;1.65;;;;;;;13.14;60.84;101211.28;11321419;26;20522;-61
2024/04/12 22:17:56;;;;;;;3.72;1.70;;;;;;;13.02;61.17;101201.38;11316908;26;20006;-60
2024/04/12 22:23:00;;;;;;;4.50;1.80;;;;;;;13.00;61.24;101197.97;11322840;26;20006;-60
2024/04/12 22:28:03;;;;;;;3.05;1.70;;;;;;;12.56;61.13;101211.47;11320003;26;19998;-60
2024/04/12 22:33:06;;;;;;;2.78;1.70;;;;;;;12.57;61.50;101213.19;11326827;26;20658;-61
2024/04/12 22:38:08;;;;;;;4.07;1.60;;;;;;;12.65;61.39;101199.69;11322108;26;20016;-61
2024/04/12 22:43:13;;;;;;;6.47;2.70;;;;;;;12.70;61.15;101195.09;11326365;26;20343;-61
2024/04/12 22:48:16;;;;;;;8.20;2.15;;;;;;;12.63;61.83;101205.03;11323143;26;20013;-61
2024/04/12 22:53:21;;;;;;;3.00;1.75;;;;;;;12.68;61.36;101199.56;11325616;26;20523;-61
2024/04/12 22:58:24;;;;;;;5.50;2.50;;;;;;;12.39;61.73;101197.47;11327410;26;20003;-61
2024/04/12 23:03:27;;;;;;;5.05;2.20;;;;;;;12.35;62.31;101209.03;11322687;26;20430;-61
2024/04/12 23:08:30;;;;;;;6.93;2.38;;;;;;;12.45;61.79;101203.28;11326953;26;20013;-61
2024/04/12 23:13:33;;;;;;;7.07;2.78;;;;;;;12.49;61.68;101196.97;11321271;26;20006;-61
2024/04/12 23:18:36;;;;;;;4.05;1.85;;;;;;;12.48;61.73;101203.13;11327227;26;20020;-61
2024/04/12 23:23:39;;;;;;;3.22;1.63;;;;;;;12.39;61.47;101198.34;11321231;26;20466;-60
2024/04/12 23:28:43;;;;;;;3.42;1.73;;;;;;;12.38;61.75;101201.88;11323390;26;20017;-60
2024/04/12 23:33:47;;;;;;;5.22;1.95;;;;;;;12.33;61.38;101196.00;11321451;26;20078;-61
2024/04/12 23:38:50;;;;;;;4.85;2.00;;;;;;;12.26;62.11;101193.69;11323282;26;21286;-60
2024/04/12 23:43:53;;;;;;;3.20;1.58;;;;;;;12.19;62.02;101192.28;11322735;26;20057;-60
2024/04/12 23:48:56;;;;;;;3.60;1.80;;;;;;;11.99;62.14;101190.56;11322487;26;20021;-61
2024/04/12 23:53:59;;;;;;;5.53;2.05;;;;;;;11.71;62.86;101201.44;11354244;25;19998;-61
2024/04/12 23:59:01;;;;;;;3.90;1.90;;;;;;;11.63;63.10;101189.59;11323803;26;20002;-61
